createdAt,value
2019-02-07T00:00:57.115Z,0
2019-02-07T00:01:57.509Z,0
2019-02-07T00:02:56.647Z,0
2019-02-07T00:03:56.406Z,0
2019-02-07T00:04:56.919Z,0
2019-02-07T00:05:57.447Z,0
2019-02-07T00:06:59.292Z,0
2019-02-07T00:07:56.717Z,0
2019-02-07T00:08:57.001Z,0
2019-02-07T00:09:57.017Z,0
2019-02-07T00:10:57.021Z,0
2019-02-07T00:11:57.042Z,0
2019-02-07T00:12:57.164Z,0
2019-02-07T00:13:57.651Z,0
2019-02-07T00:14:56.840Z,0
2019-02-07T00:15:56.847Z,0
2019-02-07T00:16:56.873Z,0
2019-02-07T00:17:56.883Z,0
2019-02-07T00:18:56.899Z,0
2019-02-07T00:19:57.000Z,0
2019-02-07T00:20:57.486Z,0
2019-02-07T00:21:57.498Z,0
2019-02-07T00:22:57.271Z,0
2019-02-07T00:23:56.981Z,0
2019-02-07T00:24:57.511Z,0
2019-02-07T00:25:57.269Z,0
2019-02-07T00:26:57.025Z,0
2019-02-07T00:27:57.044Z,0
2019-02-07T00:28:57.966Z,0
2019-02-07T00:29:57.334Z,0
2019-02-07T00:30:57.617Z,0
2019-02-07T00:31:56.888Z,0
2019-02-07T00:32:57.386Z,0
2019-02-07T00:33:57.156Z,0
2019-02-07T00:34:56.904Z,0
2019-02-07T00:35:57.425Z,0
2019-02-07T00:36:58.057Z,0
2019-02-07T00:37:57.222Z,0
2019-02-07T00:38:57.230Z,0
2019-02-07T00:39:57.320Z,0
2019-02-07T00:40:57.260Z,0
2019-02-07T00:41:57.280Z,0
2019-02-07T00:42:57.398Z,0
2019-02-07T00:43:57.342Z,0
2019-02-07T00:45:01.431Z,0
2019-02-07T00:45:58.118Z,0
2019-02-07T00:46:57.621Z,0
2019-02-07T00:47:57.630Z,0
2019-02-07T00:48:57.396Z,0
2019-02-07T00:49:57.407Z,0
2019-02-07T00:50:57.685Z,0
2019-02-07T00:51:58.232Z,0
2019-02-07T00:52:58.588Z,0
2019-02-07T00:53:57.480Z,0
2019-02-07T00:54:57.812Z,0
2019-02-07T00:55:57.518Z,0
2019-02-07T00:56:57.865Z,0
2019-02-07T00:57:57.696Z,0
2019-02-07T00:58:57.834Z,0
2019-02-07T00:59:57.512Z,0
2019-02-07T01:00:58.545Z,0
2019-02-07T01:01:58.117Z,0
2019-02-07T01:02:57.887Z,0
2019-02-07T01:03:57.651Z,0
2019-02-07T01:04:57.773Z,0
2019-02-07T01:05:58.199Z,0
2019-02-07T01:06:57.946Z,0
2019-02-07T01:07:58.610Z,0
2019-02-07T01:08:58.110Z,0
2019-02-07T01:09:57.750Z,0
2019-02-07T01:10:57.908Z,0
2019-02-07T01:11:58.038Z,0
2019-02-07T01:12:58.146Z,0
2019-02-07T01:13:58.082Z,0
2019-02-07T01:15:08.414Z,0
2019-02-07T01:15:58.903Z,0
2019-02-07T01:16:58.143Z,0
2019-02-07T01:17:57.882Z,0
2019-02-07T01:18:58.150Z,0
2019-02-07T01:19:58.422Z,0
2019-02-07T01:20:57.920Z,0
2019-02-07T01:21:57.936Z,0
2019-02-07T01:22:58.037Z,0
2019-02-07T01:23:58.878Z,0
2019-02-07T01:24:57.982Z,0
2019-02-07T01:25:58.003Z,0
2019-02-07T01:26:57.783Z,0
2019-02-07T01:27:58.581Z,0
2019-02-07T01:28:58.060Z,0
2019-02-07T01:29:57.817Z,0
2019-02-07T01:30:58.555Z,0
2019-02-07T01:31:58.960Z,0
2019-02-07T01:32:58.682Z,0
2019-02-07T01:33:58.137Z,0
2019-02-07T01:34:58.411Z,0
2019-02-07T01:35:58.195Z,0
2019-02-07T01:36:57.936Z,0
2019-02-07T01:37:58.476Z,0
2019-02-07T01:38:58.819Z,0
2019-02-07T01:39:59.140Z,0
2019-02-07T01:40:57.998Z,0
2019-02-07T01:41:58.797Z,0
2019-02-07T01:43:00.195Z,0
2019-02-07T01:43:58.303Z,0
2019-02-07T01:44:58.574Z,0
2019-02-07T01:45:58.594Z,0
2019-02-07T01:46:59.000Z,0
2019-02-07T01:47:58.119Z,0
2019-02-07T01:48:58.394Z,0
2019-02-07T01:49:58.402Z,0
2019-02-07T01:50:58.427Z,0
2019-02-07T01:51:58.687Z,0
2019-02-07T01:52:58.175Z,0
2019-02-07T01:53:58.987Z,0
2019-02-07T01:54:59.392Z,0
2019-02-07T01:55:59.323Z,0
2019-02-07T01:56:58.515Z,0
2019-02-07T01:57:58.541Z,0
2019-02-07T01:58:58.615Z,0
2019-02-07T01:59:58.578Z,0
2019-02-07T02:00:58.584Z,0
2019-02-07T02:01:59.729Z,0
2019-02-07T02:02:58.372Z,0
2019-02-07T02:03:59.253Z,0
2019-02-07T02:04:58.913Z,0
2019-02-07T02:05:58.672Z,0
2019-02-07T02:06:58.938Z,0
2019-02-07T02:07:58.696Z,0
2019-02-07T02:08:59.484Z,0
2019-02-07T02:09:59.786Z,0
2019-02-07T02:10:59.600Z,0
2019-02-07T02:11:58.756Z,0
2019-02-07T02:12:59.312Z,0
2019-02-07T02:13:59.050Z,0
2019-02-07T02:14:58.557Z,0
2019-02-07T02:15:58.830Z,0
2019-02-07T02:16:59.269Z,0
2019-02-07T02:18:00.104Z,0
2019-02-07T02:18:59.398Z,0
2019-02-07T02:19:58.636Z,0
2019-02-07T02:20:58.913Z,0
2019-02-07T02:21:59.188Z,0
2019-02-07T02:22:58.945Z,0
2019-02-07T02:23:59.220Z,0
2019-02-07T02:24:59.657Z,0
2019-02-07T02:25:59.628Z,0
2019-02-07T02:26:59.018Z,0
2019-02-07T02:27:59.286Z,0
2019-02-07T02:28:59.305Z,0
2019-02-07T02:29:59.062Z,0
2019-02-07T02:30:59.618Z,0
2019-02-07T02:31:59.114Z,0
2019-02-07T02:33:00.613Z,0
2019-02-07T02:33:59.923Z,0
2019-02-07T02:34:59.410Z,0
2019-02-07T02:35:59.419Z,0
2019-02-07T02:36:59.444Z,0
2019-02-07T02:37:59.195Z,0
2019-02-07T02:38:59.466Z,0
2019-02-07T02:39:59.431Z,0
2019-02-07T02:41:02.260Z,0
2019-02-07T02:41:59.778Z,0
2019-02-07T02:42:59.051Z,0
2019-02-07T02:43:59.642Z,0
2019-02-07T02:44:59.067Z,0
2019-02-07T02:45:59.855Z,0
2019-02-07T02:46:59.411Z,0
2019-02-07T02:47:59.945Z,0
2019-02-07T02:49:00.326Z,0
2019-02-07T02:49:59.650Z,0
2019-02-07T02:50:59.913Z,0
2019-02-07T02:51:59.437Z,0
2019-02-07T02:52:59.499Z,0
2019-02-07T02:53:59.454Z,0
2019-02-07T02:54:59.744Z,0
2019-02-07T02:56:00.228Z,0
2019-02-07T02:56:59.267Z,0
2019-02-07T02:58:00.042Z,0
2019-02-07T02:58:59.785Z,0
2019-02-07T02:59:59.818Z,0
2019-02-07T03:01:00.107Z,0
2019-02-07T03:01:59.891Z,0
2019-02-07T03:02:59.858Z,0
2019-02-07T03:04:00.514Z,0
2019-02-07T03:05:00.014Z,0
2019-02-07T03:06:00.015Z,0
2019-02-07T03:06:59.921Z,0
2019-02-07T03:07:59.678Z,0
2019-02-07T03:08:59.972Z,0
2019-02-07T03:09:59.980Z,0
2019-02-07T03:10:59.987Z,0
2019-02-07T03:12:00.728Z,0
2019-02-07T03:13:00.027Z,0
2019-02-07T03:14:00.303Z,0
2019-02-07T03:15:00.135Z,0
2019-02-07T03:16:00.090Z,0
2019-02-07T03:17:00.095Z,0
2019-02-07T03:18:00.395Z,0
2019-02-07T03:19:00.048Z,0
2019-02-07T03:20:00.551Z,0
2019-02-07T03:20:59.909Z,0
2019-02-07T03:22:00.434Z,0
2019-02-07T03:23:00.458Z,0
2019-02-07T03:24:00.718Z,0
2019-02-07T03:24:59.969Z,0
2019-02-07T03:25:59.980Z,0
2019-02-07T03:27:00.799Z,0
2019-02-07T03:28:00.406Z,0
2019-02-07T03:29:00.141Z,0
2019-02-07T03:30:00.163Z,0
2019-02-07T03:31:00.345Z,0
2019-02-07T03:32:00.366Z,0
2019-02-07T03:33:00.105Z,0
2019-02-07T03:34:00.382Z,0
2019-02-07T03:35:01.164Z,0
2019-02-07T03:36:00.164Z,0
2019-02-07T03:37:00.425Z,0
2019-02-07T03:38:00.193Z,0
2019-02-07T03:39:00.189Z,0
2019-02-07T03:40:00.323Z,0
2019-02-07T03:40:59.963Z,0
2019-02-07T03:42:00.489Z,0
2019-02-07T03:43:01.319Z,0
2019-02-07T03:44:00.795Z,0
2019-02-07T03:45:00.925Z,0
2019-02-07T03:46:12.064Z,0
2019-02-07T03:47:00.587Z,0
2019-02-07T03:48:00.613Z,0
2019-02-07T03:49:00.889Z,0
2019-02-07T03:50:01.280Z,0
2019-02-07T03:51:01.261Z,0
2019-02-07T03:52:00.666Z,0
2019-02-07T03:53:01.200Z,0
2019-02-07T03:54:00.696Z,0
2019-02-07T03:55:00.552Z,0
2019-02-07T03:56:00.481Z,0
2019-02-07T03:57:00.761Z,0
2019-02-07T03:58:01.116Z,0
2019-02-07T03:59:01.003Z,0
2019-02-07T04:00:00.816Z,0
2019-02-07T04:01:00.816Z,0
2019-02-07T04:02:00.369Z,0
2019-02-07T04:03:00.623Z,0
2019-02-07T04:04:00.869Z,0
2019-02-07T04:05:00.896Z,0
2019-02-07T04:06:00.975Z,0
2019-02-07T04:07:01.340Z,0
2019-02-07T04:08:00.949Z,0
2019-02-07T04:09:00.953Z,0
2019-02-07T04:10:00.975Z,0
2019-02-07T04:11:00.756Z,0
2019-02-07T04:12:00.768Z,0
2019-02-07T04:13:00.768Z,0
2019-02-07T04:14:02.004Z,0
2019-02-07T04:15:00.846Z,0
2019-02-07T04:16:00.596Z,0
2019-02-07T04:17:01.103Z,0
2019-02-07T04:18:00.862Z,0
2019-02-07T04:19:01.401Z,0
2019-02-07T04:20:01.543Z,0
2019-02-07T04:21:00.896Z,0
2019-02-07T04:22:02.149Z,0
2019-02-07T04:23:00.669Z,0
2019-02-07T04:24:00.685Z,0
2019-02-07T04:25:01.237Z,0
2019-02-07T04:26:00.993Z,0
2019-02-07T04:27:00.725Z,0
2019-02-07T04:28:01.026Z,0
2019-02-07T04:29:01.291Z,0
2019-02-07T04:30:02.936Z,0
2019-02-07T04:31:01.572Z,0
2019-02-07T04:32:01.081Z,0
2019-02-07T04:33:01.354Z,0
2019-02-07T04:34:01.369Z,0
2019-02-07T04:35:01.127Z,0
2019-02-07T04:36:01.159Z,0
2019-02-07T04:37:01.351Z,0
2019-02-07T04:38:01.733Z,0
2019-02-07T04:39:01.723Z,0
2019-02-07T04:40:01.736Z,0
2019-02-07T04:41:01.229Z,0
2019-02-07T04:42:01.252Z,0
2019-02-07T04:43:01.782Z,0
2019-02-07T04:44:01.281Z,0
2019-02-07T04:45:01.891Z,0
2019-02-07T04:46:01.855Z,0
2019-02-07T04:47:01.861Z,0
2019-02-07T04:48:01.742Z,0
2019-02-07T04:49:01.355Z,0
2019-02-07T04:50:01.905Z,0
2019-02-07T04:51:01.924Z,0
2019-02-07T04:52:01.156Z,0
2019-02-07T04:53:03.864Z,0
2019-02-07T04:54:01.957Z,0
2019-02-07T04:55:01.446Z,0
2019-02-07T04:56:01.471Z,0
2019-02-07T04:57:02.013Z,0
2019-02-07T04:58:01.509Z,0
2019-02-07T04:59:01.774Z,0
2019-02-07T05:00:01.301Z,0
2019-02-07T05:01:02.440Z,0
2019-02-07T05:02:01.567Z,0
2019-02-07T05:03:01.327Z,0
2019-02-07T05:04:01.863Z,0
2019-02-07T05:05:01.624Z,0
2019-02-07T05:06:02.151Z,0
2019-02-07T05:07:01.641Z,0
2019-02-07T05:08:01.675Z,0
2019-02-07T05:09:02.561Z,0
2019-02-07T05:10:01.699Z,0
2019-02-07T05:11:01.982Z,0
2019-02-07T05:12:01.727Z,0
2019-02-07T05:13:02.028Z,0
2019-02-07T05:14:02.027Z,0
2019-02-07T05:15:02.157Z,0
2019-02-07T05:16:02.328Z,0
2019-02-07T05:17:02.005Z,0
2019-02-07T05:18:01.846Z,0
2019-02-07T05:19:02.634Z,0
2019-02-07T05:20:01.980Z,0
2019-02-07T05:21:02.143Z,0
2019-02-07T05:22:02.417Z,0
2019-02-07T05:23:02.442Z,0
2019-02-07T05:24:02.788Z,0
2019-02-07T05:25:02.799Z,0
2019-02-07T05:26:02.226Z,0
2019-02-07T05:27:01.988Z,0
2019-02-07T05:28:01.742Z,0
2019-02-07T05:29:02.269Z,0
2019-02-07T05:30:01.780Z,0
2019-02-07T05:31:02.353Z,0
2019-02-07T05:32:02.965Z,0
2019-02-07T05:33:02.078Z,0
2019-02-07T05:34:02.356Z,0
2019-02-07T05:35:02.964Z,0
2019-02-07T05:36:02.175Z,0
2019-02-07T05:37:02.166Z,0
2019-02-07T05:38:02.170Z,0
2019-02-07T05:39:02.641Z,0
2019-02-07T05:40:02.975Z,0
2019-02-07T05:41:02.722Z,0
2019-02-07T05:42:02.495Z,0
2019-02-07T05:43:02.514Z,0
2019-02-07T05:44:02.786Z,0
2019-02-07T05:45:02.535Z,0
2019-02-07T05:46:02.291Z,0
2019-02-07T05:47:02.960Z,0
2019-02-07T05:48:02.341Z,0
2019-02-07T05:49:02.224Z,0
2019-02-07T05:50:02.613Z,0
2019-02-07T05:51:02.510Z,0
2019-02-07T05:52:02.392Z,0
2019-02-07T05:53:02.171Z,0
2019-02-07T05:54:02.964Z,0
2019-02-07T05:55:03.126Z,0
2019-02-07T05:56:02.738Z,0
2019-02-07T05:57:03.262Z,0
2019-02-07T05:58:02.747Z,0
2019-02-07T05:59:04.033Z,0
2019-02-07T06:00:02.934Z,0
2019-02-07T06:01:02.536Z,0
2019-02-07T06:02:03.301Z,0
2019-02-07T06:03:02.869Z,0
2019-02-07T06:04:02.340Z,0
2019-02-07T06:05:02.609Z,0
2019-02-07T06:06:02.918Z,0
2019-02-07T06:07:02.896Z,0
2019-02-07T06:08:02.918Z,0
2019-02-07T06:09:02.691Z,0
2019-02-07T06:10:03.792Z,0
2019-02-07T06:11:03.498Z,0
2019-02-07T06:12:03.271Z,0
2019-02-07T06:13:02.747Z,0
2019-02-07T06:14:02.494Z,0
2019-02-07T06:15:02.772Z,0
2019-02-07T06:16:04.089Z,0
2019-02-07T06:17:11.550Z,0
2019-02-07T06:18:04.141Z,0
2019-02-07T06:19:03.116Z,0
2019-02-07T06:20:03.365Z,0
2019-02-07T06:21:03.142Z,0
2019-02-07T06:22:03.403Z,0
2019-02-07T06:23:02.915Z,0
2019-02-07T06:24:02.923Z,0
2019-02-07T06:25:03.198Z,0
2019-02-07T06:26:04.082Z,0
2019-02-07T06:27:03.486Z,0
2019-02-07T06:28:03.258Z,0
2019-02-07T06:29:04.475Z,0
2019-02-07T06:30:03.533Z,0
2019-02-07T06:31:03.292Z,0
2019-02-07T06:32:03.047Z,0
2019-02-07T06:33:03.510Z,0
2019-02-07T06:34:03.435Z,0
2019-02-07T06:35:03.099Z,0
2019-02-07T06:36:03.117Z,0
2019-02-07T06:37:03.390Z,0
2019-02-07T06:38:03.666Z,0
2019-02-07T06:39:03.096Z,0
2019-02-07T06:40:03.184Z,0
2019-02-07T06:41:03.553Z,0
2019-02-07T06:42:04.401Z,0
2019-02-07T06:43:03.759Z,0
2019-02-07T06:44:03.264Z,0
2019-02-07T06:45:05.876Z,0
2019-02-07T06:46:03.554Z,0
2019-02-07T06:47:13.197Z,0
2019-02-07T06:48:03.602Z,0
2019-02-07T06:49:04.125Z,0
2019-02-07T06:50:03.461Z,0
2019-02-07T06:51:03.196Z,0
2019-02-07T06:52:04.159Z,0
2019-02-07T06:53:03.396Z,0
2019-02-07T06:54:03.778Z,0
2019-02-07T06:55:03.962Z,0
2019-02-07T06:56:03.460Z,0
2019-02-07T06:57:04.417Z,0
2019-02-07T06:58:04.241Z,0
2019-02-07T06:59:04.739Z,0
2019-02-07T07:00:03.776Z,0
2019-02-07T07:01:03.275Z,0
2019-02-07T07:02:03.810Z,0
2019-02-07T07:03:04.094Z,0
2019-02-07T07:04:06.593Z,0
2019-02-07T07:05:04.426Z,0
2019-02-07T07:06:03.895Z,0
2019-02-07T07:07:04.151Z,0
2019-02-07T07:08:03.659Z,0
2019-02-07T07:09:03.912Z,0
2019-02-07T07:10:03.972Z,0
2019-02-07T07:11:03.953Z,0
2019-02-07T07:12:03.716Z,0
2019-02-07T07:13:04.421Z,0
2019-02-07T07:14:04.010Z,0
2019-02-07T07:15:04.290Z,0
2019-02-07T07:16:03.846Z,0
2019-02-07T07:17:04.310Z,0
2019-02-07T07:18:04.064Z,0
2019-02-07T07:19:03.899Z,0
2019-02-07T07:20:04.109Z,0
2019-02-07T07:21:06.259Z,0
2019-02-07T07:22:04.173Z,0
2019-02-07T07:23:03.894Z,5
2019-02-07T07:24:04.185Z,5
2019-02-07T07:25:03.935Z,5
2019-02-07T07:26:03.696Z,5
2019-02-07T07:27:04.493Z,5
2019-02-07T07:28:03.985Z,5
2019-02-07T07:29:04.978Z,5
2019-02-07T07:30:04.009Z,5
2019-02-07T07:31:03.790Z,5
2019-02-07T07:32:03.896Z,0
2019-02-07T07:33:04.065Z,0
2019-02-07T07:34:04.339Z,0
2019-02-07T07:35:04.371Z,5
2019-02-07T07:36:03.987Z,5
2019-02-07T07:37:04.743Z,0
2019-02-07T07:38:03.893Z,5
2019-02-07T07:39:04.164Z,5
2019-02-07T07:40:04.437Z,5
2019-02-07T07:41:04.464Z,5
2019-02-07T07:42:03.948Z,5
2019-02-07T07:43:04.744Z,5
2019-02-07T07:44:04.507Z,5
2019-02-07T07:45:05.862Z,5
2019-02-07T07:46:04.794Z,5
2019-02-07T07:47:04.829Z,5
2019-02-07T07:48:04.331Z,5
2019-02-07T07:49:04.349Z,5
2019-02-07T07:50:04.876Z,5
2019-02-07T07:51:04.355Z,5
2019-02-07T07:52:04.733Z,5
2019-02-07T07:53:05.177Z,5
2019-02-07T07:54:04.405Z,5
2019-02-07T07:55:04.980Z,5
2019-02-07T07:56:04.958Z,5
2019-02-07T07:57:04.204Z,5
2019-02-07T07:58:05.060Z,5
2019-02-07T07:59:04.515Z,5
2019-02-07T08:00:05.782Z,5
2019-02-07T08:01:04.805Z,5
2019-02-07T08:02:04.634Z,5
2019-02-07T08:03:04.592Z,5
2019-02-07T08:04:04.847Z,5
2019-02-07T08:05:04.857Z,5
2019-02-07T08:06:04.616Z,5
2019-02-07T08:07:04.625Z,5
2019-02-07T08:08:05.623Z,0
2019-02-07T08:09:05.183Z,5
2019-02-07T08:10:04.608Z,5
2019-02-07T08:11:06.887Z,5
2019-02-07T08:12:04.742Z,5
2019-02-07T08:13:04.987Z,5
2019-02-07T08:14:05.003Z,5
2019-02-07T08:15:04.974Z,5
2019-02-07T08:16:05.587Z,5
2019-02-07T08:17:06.074Z,5
2019-02-07T08:18:04.815Z,0
2019-02-07T08:19:04.568Z,0
2019-02-07T08:20:04.855Z,5
2019-02-07T08:21:04.867Z,5
2019-02-07T08:22:07.535Z,5
2019-02-07T08:23:05.146Z,5
2019-02-07T08:24:05.521Z,5
2019-02-07T08:25:05.180Z,5
2019-02-07T08:26:05.194Z,5
2019-02-07T08:27:04.949Z,5
2019-02-07T08:28:04.715Z,5
2019-02-07T08:29:05.242Z,5
2019-02-07T08:30:05.564Z,5
2019-02-07T08:31:05.229Z,5
2019-02-07T08:32:05.284Z,5
2019-02-07T08:33:05.325Z,5
2019-02-07T08:34:05.325Z,5
2019-02-07T08:35:04.833Z,5
2019-02-07T08:36:05.101Z,10
2019-02-07T08:37:05.397Z,5
2019-02-07T08:38:07.311Z,5
2019-02-07T08:39:06.205Z,5
2019-02-07T08:40:05.198Z,5
2019-02-07T08:41:05.446Z,5
2019-02-07T08:42:05.474Z,10
2019-02-07T08:43:05.227Z,10
2019-02-07T08:44:05.513Z,15
2019-02-07T08:45:05.386Z,15
2019-02-07T08:46:05.980Z,15
2019-02-07T08:47:06.186Z,10
2019-02-07T08:48:11.417Z,15
2019-02-07T08:49:08.163Z,10
2019-02-07T08:50:05.687Z,10
2019-02-07T08:51:05.623Z,5
2019-02-07T08:52:05.887Z,5
2019-02-07T08:53:05.396Z,5
2019-02-07T08:54:05.716Z,5
2019-02-07T08:55:06.122Z,10
2019-02-07T08:56:05.695Z,10
2019-02-07T08:57:05.973Z,10
2019-02-07T08:58:05.206Z,5
2019-02-07T08:59:05.237Z,5
2019-02-07T09:00:05.507Z,5
2019-02-07T09:01:06.039Z,10
2019-02-07T09:02:06.308Z,10
2019-02-07T09:03:06.644Z,10
2019-02-07T09:04:05.569Z,10
2019-02-07T09:05:05.587Z,10
2019-02-07T09:06:05.351Z,10
2019-02-07T09:07:06.130Z,10
2019-02-07T09:08:05.372Z,10
2019-02-07T09:09:06.170Z,5
2019-02-07T09:10:06.450Z,10
2019-02-07T09:11:06.341Z,5
2019-02-07T09:12:05.959Z,5
2019-02-07T09:13:05.760Z,5
2019-02-07T09:14:06.019Z,5
2019-02-07T09:15:05.495Z,5
2019-02-07T09:16:05.592Z,5
2019-02-07T09:17:06.328Z,5
2019-02-07T09:18:17.764Z,5
2019-02-07T09:19:06.520Z,5
2019-02-07T09:20:06.372Z,5
2019-02-07T09:21:05.851Z,5
2019-02-07T09:22:06.130Z,5
2019-02-07T09:23:05.638Z,10
2019-02-07T09:24:06.165Z,10
2019-02-07T09:25:05.926Z,5
2019-02-07T09:26:06.714Z,10
2019-02-07T09:27:05.963Z,5
2019-02-07T09:28:05.967Z,10
2019-02-07T09:29:05.998Z,10
2019-02-07T09:30:06.524Z,10
2019-02-07T09:31:07.605Z,10
2019-02-07T09:32:06.047Z,10
2019-02-07T09:33:06.318Z,10
2019-02-07T09:34:06.547Z,10
2019-02-07T09:35:06.366Z,10
2019-02-07T09:36:16.630Z,10
2019-02-07T09:37:06.639Z,10
2019-02-07T09:38:06.399Z,10
2019-02-07T09:39:06.430Z,10
2019-02-07T09:40:05.931Z,10
2019-02-07T09:41:06.648Z,15
2019-02-07T09:42:06.739Z,10
2019-02-07T09:43:06.482Z,5
2019-02-07T09:44:06.235Z,5
2019-02-07T09:45:06.776Z,5
2019-02-07T09:46:06.530Z,10
2019-02-07T09:47:06.555Z,10
2019-02-07T09:48:06.096Z,5
2019-02-07T09:49:08.916Z,5
2019-02-07T09:50:07.211Z,5
2019-02-07T09:51:06.708Z,5
2019-02-07T09:52:06.379Z,5
2019-02-07T09:53:06.653Z,5
2019-02-07T09:54:06.689Z,5
2019-02-07T09:55:06.428Z,5
2019-02-07T09:56:06.452Z,5
2019-02-07T09:57:07.472Z,5
2019-02-07T09:58:07.008Z,10
2019-02-07T09:59:07.768Z,10
2019-02-07T10:00:07.043Z,10
2019-02-07T10:01:06.524Z,10
2019-02-07T10:02:06.300Z,10
2019-02-07T10:03:06.663Z,10
2019-02-07T10:04:06.578Z,10
2019-02-07T10:05:07.660Z,15
2019-02-07T10:06:06.869Z,15
2019-02-07T10:07:06.367Z,10
2019-02-07T10:08:06.901Z,10
2019-02-07T10:09:06.937Z,15
2019-02-07T10:10:06.669Z,15
2019-02-07T10:11:06.700Z,15
2019-02-07T10:12:07.179Z,15
2019-02-07T10:13:07.484Z,15
2019-02-07T10:14:06.742Z,10
2019-02-07T10:15:07.292Z,10
2019-02-07T10:16:07.304Z,10
2019-02-07T10:17:06.898Z,15
2019-02-07T10:18:06.870Z,15
2019-02-07T10:19:07.355Z,30
2019-02-07T10:20:07.560Z,30
2019-02-07T10:21:07.193Z,25
2019-02-07T10:22:07.401Z,30
2019-02-07T10:23:07.175Z,30
2019-02-07T10:24:06.912Z,35
2019-02-07T10:25:06.926Z,25
2019-02-07T10:26:07.200Z,25
2019-02-07T10:27:10.348Z,30
2019-02-07T10:28:08.062Z,20
2019-02-07T10:29:07.260Z,25
2019-02-07T10:30:07.141Z,15
2019-02-07T10:31:07.642Z,15
2019-02-07T10:32:07.310Z,15
2019-02-07T10:33:07.078Z,20
2019-02-07T10:34:07.832Z,30
2019-02-07T10:35:06.852Z,25
2019-02-07T10:36:08.370Z,30
2019-02-07T10:37:07.143Z,30
2019-02-07T10:38:07.422Z,30
2019-02-07T10:39:39.231Z,35
2019-02-07T10:40:07.451Z,30
2019-02-07T10:41:07.210Z,30
2019-02-07T10:42:08.006Z,35
2019-02-07T10:43:07.672Z,35
2019-02-07T10:44:07.870Z,40
2019-02-07T10:45:07.276Z,35
2019-02-07T10:46:07.541Z,30
2019-02-07T10:47:07.308Z,25
2019-02-07T10:48:07.917Z,35
2019-02-07T10:49:07.338Z,40
2019-02-07T10:50:08.250Z,40
2019-02-07T10:51:07.697Z,40
2019-02-07T10:52:08.297Z,35
2019-02-07T10:53:07.158Z,35
2019-02-07T10:54:07.699Z,40
2019-02-07T10:55:07.698Z,40
2019-02-07T10:56:07.455Z,40
2019-02-07T10:57:07.217Z,40
2019-02-07T10:58:07.491Z,35
2019-02-07T10:59:07.958Z,40
2019-02-07T11:00:07.901Z,40
2019-02-07T11:01:08.322Z,45
2019-02-07T11:02:07.560Z,40
2019-02-07T11:03:08.094Z,45
2019-02-07T11:04:08.130Z,45
2019-02-07T11:05:07.349Z,45
2019-02-07T11:06:07.626Z,50
2019-02-07T11:07:08.315Z,55
2019-02-07T11:08:07.412Z,55
2019-02-07T11:09:07.931Z,50
2019-02-07T11:10:08.478Z,45
2019-02-07T11:11:09.898Z,45
2019-02-07T11:12:08.243Z,50
2019-02-07T11:13:08.265Z,45
2019-02-07T11:14:08.018Z,45
2019-02-07T11:15:08.811Z,50
2019-02-07T11:16:07.808Z,50
2019-02-07T11:17:10.630Z,55
2019-02-07T11:18:08.107Z,55
2019-02-07T11:19:08.115Z,50
2019-02-07T11:20:08.393Z,40
2019-02-07T11:21:08.440Z,40
2019-02-07T11:22:08.167Z,40
2019-02-07T11:23:08.728Z,35
2019-02-07T11:24:07.693Z,30
2019-02-07T11:25:07.954Z,35
2019-02-07T11:26:07.992Z,35
2019-02-07T11:27:07.848Z,35
2019-02-07T11:28:19.254Z,40
2019-02-07T11:29:08.279Z,50
2019-02-07T11:30:08.135Z,50
2019-02-07T11:31:09.382Z,45
2019-02-07T11:32:08.082Z,35
2019-02-07T11:33:08.097Z,40
2019-02-07T11:34:08.354Z,35
2019-02-07T11:35:08.134Z,55
2019-02-07T11:36:08.401Z,60
2019-02-07T11:37:08.411Z,55
2019-02-07T11:38:08.923Z,55
2019-02-07T11:39:08.636Z,50
2019-02-07T11:40:08.478Z,45
2019-02-07T11:41:08.743Z,40
2019-02-07T11:42:08.536Z,40
2019-02-07T11:43:08.273Z,45
2019-02-07T11:44:08.331Z,55
2019-02-07T11:45:08.827Z,50
2019-02-07T11:46:08.806Z,50
2019-02-07T11:47:16.174Z,55
2019-02-07T11:48:08.627Z,50
2019-02-07T11:49:16.303Z,55
2019-02-07T11:50:08.919Z,55
2019-02-07T11:51:08.405Z,60
2019-02-07T11:52:08.425Z,50
2019-02-07T11:53:08.441Z,50
2019-02-07T11:54:08.971Z,50
2019-02-07T11:55:08.908Z,55
2019-02-07T11:56:08.784Z,50
2019-02-07T11:57:08.785Z,40
2019-02-07T11:58:08.797Z,40
2019-02-07T11:59:08.540Z,45
2019-02-07T12:00:08.828Z,55
2019-02-07T12:01:08.850Z,50
2019-02-07T12:02:18.529Z,55
2019-02-07T12:03:08.947Z,45
2019-02-07T12:04:09.207Z,40
2019-02-07T12:05:08.660Z,35
2019-02-07T12:06:10.945Z,45
2019-02-07T12:07:08.959Z,40
2019-02-07T12:08:08.966Z,45
2019-02-07T12:09:08.707Z,40
2019-02-07T12:10:09.654Z,45
2019-02-07T12:11:09.014Z,40
2019-02-07T12:12:08.808Z,40
2019-02-07T12:13:09.313Z,45
2019-02-07T12:14:09.079Z,45
2019-02-07T12:15:08.834Z,40
2019-02-07T12:16:08.859Z,40
2019-02-07T12:17:08.870Z,45
2019-02-07T12:18:10.155Z,45
2019-02-07T12:19:20.060Z,45
2019-02-07T12:20:09.487Z,45
2019-02-07T12:21:08.695Z,50
2019-02-07T12:22:09.211Z,50
2019-02-07T12:23:09.237Z,45
2019-02-07T12:24:09.254Z,50
2019-02-07T12:25:09.326Z,50
2019-02-07T12:26:09.520Z,40
2019-02-07T12:27:09.049Z,40
2019-02-07T12:28:09.061Z,35
2019-02-07T12:29:09.335Z,40
2019-02-07T12:30:09.621Z,35
2019-02-07T12:31:08.873Z,30
2019-02-07T12:32:09.379Z,25
2019-02-07T12:33:09.937Z,40
2019-02-07T12:34:09.524Z,35
2019-02-07T12:35:08.931Z,30
2019-02-07T12:36:09.198Z,30
2019-02-07T12:37:09.472Z,40
2019-02-07T12:38:09.496Z,40
2019-02-07T12:39:12.127Z,40
2019-02-07T12:40:09.340Z,45
2019-02-07T12:41:10.332Z,35
2019-02-07T12:42:09.644Z,45
2019-02-07T12:43:09.322Z,40
2019-02-07T12:44:09.356Z,40
2019-02-07T12:45:09.476Z,40
2019-02-07T12:46:10.007Z,35
2019-02-07T12:47:09.923Z,50
2019-02-07T12:48:09.157Z,45
2019-02-07T12:49:10.009Z,40
2019-02-07T12:50:09.514Z,35
2019-02-07T12:51:09.469Z,35
2019-02-07T12:52:09.750Z,30
2019-02-07T12:53:10.024Z,30
2019-02-07T12:54:09.774Z,30
2019-02-07T12:55:09.812Z,20
2019-02-07T12:56:09.570Z,25
2019-02-07T12:57:10.775Z,30
2019-02-07T12:58:09.628Z,30
2019-02-07T12:59:09.888Z,40
2019-02-07T13:00:09.940Z,50
2019-02-07T13:01:09.387Z,40
2019-02-07T13:02:09.926Z,30
2019-02-07T13:03:10.193Z,40
2019-02-07T13:04:09.584Z,45
2019-02-07T13:05:11.184Z,45
2019-02-07T13:06:09.989Z,45
2019-02-07T13:07:11.518Z,40
2019-02-07T13:08:10.011Z,40
2019-02-07T13:09:10.304Z,40
2019-02-07T13:10:09.558Z,45
2019-02-07T13:11:10.119Z,35
2019-02-07T13:12:11.816Z,35
2019-02-07T13:13:10.836Z,40
2019-02-07T13:14:09.917Z,40
2019-02-07T13:15:10.066Z,40
2019-02-07T13:16:10.234Z,40
2019-02-07T13:17:09.988Z,35
2019-02-07T13:18:10.342Z,35
2019-02-07T13:19:10.365Z,35
2019-02-07T13:20:10.690Z,30
2019-02-07T13:21:11.010Z,35
2019-02-07T13:22:10.362Z,40
2019-02-07T13:23:10.148Z,35
2019-02-07T13:24:10.377Z,35
2019-02-07T13:25:10.515Z,35
2019-02-07T13:26:10.461Z,30
2019-02-07T13:27:10.654Z,30
2019-02-07T13:28:11.075Z,40
2019-02-07T13:29:10.510Z,35
2019-02-07T13:30:10.243Z,45
2019-02-07T13:31:10.117Z,35
2019-02-07T13:32:10.365Z,40
2019-02-07T13:33:12.227Z,45
2019-02-07T13:34:10.459Z,45
2019-02-07T13:35:10.414Z,40
2019-02-07T13:36:12.827Z,50
2019-02-07T13:37:10.468Z,55
2019-02-07T13:38:10.439Z,45
2019-02-07T13:39:10.314Z,35
2019-02-07T13:40:10.617Z,35
2019-02-07T13:41:11.225Z,35
2019-02-07T13:42:10.379Z,40
2019-02-07T13:43:10.659Z,40
2019-02-07T13:44:11.412Z,40
2019-02-07T13:45:13.646Z,35
2019-02-07T13:46:10.451Z,45
2019-02-07T13:47:10.721Z,45
2019-02-07T13:48:10.227Z,40
2019-02-07T13:49:10.254Z,50
2019-02-07T13:50:10.787Z,40
2019-02-07T13:51:10.801Z,40
2019-02-07T13:52:11.761Z,30
2019-02-07T13:53:10.826Z,30
2019-02-07T13:54:10.841Z,30
2019-02-07T13:55:11.135Z,30
2019-02-07T13:56:10.889Z,30
2019-02-07T13:57:11.173Z,30
2019-02-07T13:58:10.917Z,30
2019-02-07T13:59:10.694Z,30
2019-02-07T14:00:11.572Z,25
2019-02-07T14:01:10.972Z,25
2019-02-07T14:02:12.755Z,25
2019-02-07T14:03:11.289Z,35
2019-02-07T14:04:11.030Z,35
2019-02-07T14:05:11.081Z,35
2019-02-07T14:06:11.634Z,35
2019-02-07T14:07:11.283Z,35
2019-02-07T14:08:11.563Z,35
2019-02-07T14:09:11.118Z,30
2019-02-07T14:10:11.397Z,30
2019-02-07T14:11:11.411Z,30
2019-02-07T14:12:10.917Z,30
2019-02-07T14:13:10.936Z,25
2019-02-07T14:14:10.976Z,25
2019-02-07T14:15:11.559Z,25
2019-02-07T14:16:11.817Z,25
2019-02-07T14:17:11.289Z,30
2019-02-07T14:18:11.288Z,30
2019-02-07T14:19:12.415Z,30
2019-02-07T14:20:12.932Z,30
2019-02-07T14:21:11.140Z,30
2019-02-07T14:22:11.111Z,30
2019-02-07T14:23:12.013Z,30
2019-02-07T14:24:11.135Z,35
2019-02-07T14:25:11.408Z,35
2019-02-07T14:26:10.957Z,30
2019-02-07T14:27:11.533Z,35
2019-02-07T14:28:11.739Z,30
2019-02-07T14:29:11.227Z,30
2019-02-07T14:30:11.256Z,30
2019-02-07T14:31:13.489Z,35
2019-02-07T14:32:11.537Z,30
2019-02-07T14:33:11.826Z,30
2019-02-07T14:34:11.309Z,30
2019-02-07T14:35:11.591Z,40
2019-02-07T14:36:11.612Z,30